sensor_id;sensor_type;location;lat;lon;timestamp;temperature;humidity
39677;DHT22;27789;50.840;4.386;2023-03-01T00:01:46;2.90;98.40
39677;DHT22;27789;50.840;4.386;2023-03-01T00:04:12;2.90;98.50
39677;DHT22;27789;50.840;4.386;2023-03-01T00:06:38;2.80;98.40
39677;DHT22;27789;50.840;4.386;2023-03-01T00:09:03;2.90;98.40
39677;DHT22;27789;50.840;4.386;2023-03-01T00:11:29;2.80;98.40
39677;DHT22;27789;50.840;4.386;2023-03-01T00:13:57;2.90;98.60
39677;DHT22;27789;50.840;4.386;2023-03-01T00:18:48;2.80;98.50
39677;DHT22;27789;50.840;4.386;2023-03-01T00:21:13;2.80;98.70
39677;DHT22;27789;50.840;4.386;2023-03-01T00:23:39;2.80;98.70
39677;DHT22;27789;50.840;4.386;2023-03-01T00:26:05;2.70;98.70
39677;DHT22;27789;50.840;4.386;2023-03-01T00:28:31;2.80;98.70
39677;DHT22;27789;50.840;4.386;2023-03-01T00:31:02;2.70;98.90
39677;DHT22;27789;50.840;4.386;2023-03-01T00:33:27;2.70;98.80
39677;DHT22;27789;50.840;4.386;2023-03-01T00:35:53;2.70;99.00
39677;DHT22;27789;50.840;4.386;2023-03-01T00:38:18;2.70;99.00
39677;DHT22;27789;50.840;4.386;2023-03-01T00:40:44;2.70;98.90
39677;DHT22;27789;50.840;4.386;2023-03-01T00:43:09;2.70;99.00
39677;DHT22;27789;50.840;4.386;2023-03-01T00:45:35;2.70;99.00
39677;DHT22;27789;50.840;4.386;2023-03-01T00:48:00;2.60;99.00
39677;DHT22;27789;50.840;4.386;2023-03-01T00:50:26;2.60;99.10
39677;DHT22;27789;50.840;4.386;2023-03-01T00:52:52;2.60;99.20
39677;DHT22;27789;50.840;4.386;2023-03-01T00:55:18;2.60;99.20
39677;DHT22;27789;50.840;4.386;2023-03-01T00:57:43;2.60;99.30
39677;DHT22;27789;50.840;4.386;2023-03-01T01:00:09;2.60;99.40
39677;DHT22;27789;50.840;4.386;2023-03-01T01:02:35;2.60;99.30
39677;DHT22;27789;50.840;4.386;2023-03-01T01:05:00;2.50;99.40
39677;DHT22;27789;50.840;4.386;2023-03-01T01:07:26;2.50;99.40
39677;DHT22;27789;50.840;4.386;2023-03-01T01:09:51;2.50;99.50
39677;DHT22;27789;50.840;4.386;2023-03-01T01:12:17;2.40;99.50
39677;DHT22;27789;50.840;4.386;2023-03-01T01:14:42;2.40;99.60
39677;DHT22;27789;50.840;4.386;2023-03-01T01:17:08;2.40;99.60
39677;DHT22;27789;50.840;4.386;2023-03-01T01:19:34;2.40;99.60
39677;DHT22;27789;50.840;4.386;2023-03-01T01:21:59;2.30;99.60
39677;DHT22;27789;50.840;4.386;2023-03-01T01:24:25;2.30;99.70
39677;DHT22;27789;50.840;4.386;2023-03-01T01:26:51;2.30;99.70
39677;DHT22;27789;50.840;4.386;2023-03-01T01:29:16;2.30;99.80
39677;DHT22;27789;50.840;4.386;2023-03-01T01:31:42;2.30;99.70
39677;DHT22;27789;50.840;4.386;2023-03-01T01:34:08;2.30;99.80
39677;DHT22;27789;50.840;4.386;2023-03-01T01:36:37;2.30;99.80
39677;DHT22;27789;50.840;4.386;2023-03-01T01:39:03;2.30;99.80
39677;DHT22;27789;50.840;4.386;2023-03-01T01:41:29;2.20;99.80
39677;DHT22;27789;50.840;4.386;2023-03-01T01:46:30;2.20;99.90
39677;DHT22;27789;50.840;4.386;2023-03-01T01:49:00;2.10;99.90
39677;DHT22;27789;50.840;4.386;2023-03-01T01:51:28;2.20;99.90
39677;DHT22;27789;50.840;4.386;2023-03-01T01:53:58;2.20;99.90
39677;DHT22;27789;50.840;4.386;2023-03-01T01:56:24;2.10;99.90
39677;DHT22;27789;50.840;4.386;2023-03-01T01:58:51;2.10;99.90
39677;DHT22;27789;50.840;4.386;2023-03-01T02:01:17;2.10;99.90
39677;DHT22;27789;50.840;4.386;2023-03-01T02:03:43;2.10;99.90
39677;DHT22;27789;50.840;4.386;2023-03-01T02:08:35;2.20;99.90
39677;DHT22;27789;50.840;4.386;2023-03-01T02:11:02;2.20;99.90
39677;DHT22;27789;50.840;4.386;2023-03-01T02:13:30;2.10;99.90
39677;DHT22;27789;50.840;4.386;2023-03-01T02:15:55;2.10;99.90
39677;DHT22;27789;50.840;4.386;2023-03-01T02:18:21;2.10;99.90
39677;DHT22;27789;50.840;4.386;2023-03-01T02:21:14;2.10;99.90
39677;DHT22;27789;50.840;4.386;2023-03-01T02:23:35;2.10;99.90
39677;DHT22;27789;50.840;4.386;2023-03-01T02:26:02;2.00;99.90
39677;DHT22;27789;50.840;4.386;2023-03-01T02:28:38;2.10;99.90
39677;DHT22;27789;50.840;4.386;2023-03-01T02:31:07;2.00;99.90
39677;DHT22;27789;50.840;4.386;2023-03-01T02:33:44;2.10;99.90
39677;DHT22;27789;50.840;4.386;2023-03-01T02:36:14;2.10;99.90
39677;DHT22;27789;50.840;4.386;2023-03-01T02:38:41;2.00;99.90
39677;DHT22;27789;50.840;4.386;2023-03-01T02:41:07;2.00;99.90
39677;DHT22;27789;50.840;4.386;2023-03-01T02:43:33;2.00;99.90
39677;DHT22;27789;50.840;4.386;2023-03-01T02:46:07;2.00;99.90
39677;DHT22;27789;50.840;4.386;2023-03-01T02:51:17;1.90;99.90
39677;DHT22;27789;50.840;4.386;2023-03-01T02:56:09;1.90;99.90
39677;DHT22;27789;50.840;4.386;2023-03-01T02:58:39;1.90;99.90
39677;DHT22;27789;50.840;4.386;2023-03-01T03:01:11;1.90;99.90
39677;DHT22;27789;50.840;4.386;2023-03-01T03:03:37;1.90;99.90
39677;DHT22;27789;50.840;4.386;2023-03-01T03:06:02;1.90;99.90
39677;DHT22;27789;50.840;4.386;2023-03-01T03:08:27;1.90;99.90
39677;DHT22;27789;50.840;4.386;2023-03-01T03:10:53;1.90;99.90
39677;DHT22;27789;50.840;4.386;2023-03-01T03:13:18;1.90;99.90
39677;DHT22;27789;50.840;4.386;2023-03-01T03:15:44;1.90;99.90
39677;DHT22;27789;50.840;4.386;2023-03-01T03:18:14;1.80;99.90
39677;DHT22;27789;50.840;4.386;2023-03-01T03:20:40;1.80;99.90
39677;DHT22;27789;50.840;4.386;2023-03-01T03:23:06;1.80;99.90
39677;DHT22;27789;50.840;4.386;2023-03-01T03:25:32;1.80;99.90
39677;DHT22;27789;50.840;4.386;2023-03-01T03:28:00;1.80;99.90
39677;DHT22;27789;50.840;4.386;2023-03-01T03:30:29;1.80;99.90
39677;DHT22;27789;50.840;4.386;2023-03-01T03:32:56;1.70;99.90
39677;DHT22;27789;50.840;4.386;2023-03-01T03:35:28;1.70;99.90
39677;DHT22;27789;50.840;4.386;2023-03-01T03:37:55;1.70;99.90
39677;DHT22;27789;50.840;4.386;2023-03-01T03:40:28;1.70;99.90
39677;DHT22;27789;50.840;4.386;2023-03-01T03:42:54;1.70;99.90
39677;DHT22;27789;50.840;4.386;2023-03-01T03:45:20;1.70;99.90
39677;DHT22;27789;50.840;4.386;2023-03-01T03:47:45;1.60;99.90
39677;DHT22;27789;50.840;4.386;2023-03-01T03:50:11;1.60;99.90
39677;DHT22;27789;50.840;4.386;2023-03-01T03:52:37;1.70;99.90
39677;DHT22;27789;50.840;4.386;2023-03-01T03:55:03;1.70;99.90
39677;DHT22;27789;50.840;4.386;2023-03-01T03:57:28;1.60;99.90
39677;DHT22;27789;50.840;4.386;2023-03-01T03:59:54;1.60;99.90
39677;DHT22;27789;50.840;4.386;2023-03-01T04:02:19;1.50;99.90
39677;DHT22;27789;50.840;4.386;2023-03-01T04:04:47;1.50;99.90
39677;DHT22;27789;50.840;4.386;2023-03-01T04:07:15;1.50;99.90
39677;DHT22;27789;50.840;4.386;2023-03-01T04:09:40;1.50;99.90
39677;DHT22;27789;50.840;4.386;2023-03-01T04:12:08;1.50;99.90
39677;DHT22;27789;50.840;4.386;2023-03-01T04:14:33;1.50;99.90
39677;DHT22;27789;50.840;4.386;2023-03-01T04:16:59;1.40;99.90
39677;DHT22;27789;50.840;4.386;2023-03-01T04:19:24;1.40;99.90
39677;DHT22;27789;50.840;4.386;2023-03-01T04:21:49;1.40;99.90
39677;DHT22;27789;50.840;4.386;2023-03-01T04:24:15;1.40;99.90
39677;DHT22;27789;50.840;4.386;2023-03-01T04:26:41;1.30;99.90
39677;DHT22;27789;50.840;4.386;2023-03-01T04:29:07;1.40;99.90
39677;DHT22;27789;50.840;4.386;2023-03-01T04:31:32;1.30;99.90
39677;DHT22;27789;50.840;4.386;2023-03-01T04:33:59;1.30;99.90
39677;DHT22;27789;50.840;4.386;2023-03-01T04:36:26;1.30;99.90
39677;DHT22;27789;50.840;4.386;2023-03-01T04:38:52;1.30;99.90
39677;DHT22;27789;50.840;4.386;2023-03-01T04:41:18;1.40;99.90
39677;DHT22;27789;50.840;4.386;2023-03-01T04:43:45;1.40;99.90
39677;DHT22;27789;50.840;4.386;2023-03-01T04:46:11;1.40;99.90
39677;DHT22;27789;50.840;4.386;2023-03-01T04:48:38;1.40;99.90
39677;DHT22;27789;50.840;4.386;2023-03-01T04:51:04;1.30;99.90
39677;DHT22;27789;50.840;4.386;2023-03-01T04:53:31;1.30;99.90
39677;DHT22;27789;50.840;4.386;2023-03-01T04:55:57;1.30;99.90
39677;DHT22;27789;50.840;4.386;2023-03-01T04:58:24;1.30;99.90
39677;DHT22;27789;50.840;4.386;2023-03-01T05:00:50;1.20;99.90
39677;DHT22;27789;50.840;4.386;2023-03-01T05:03:15;1.20;99.90
39677;DHT22;27789;50.840;4.386;2023-03-01T05:05:43;1.20;99.90
39677;DHT22;27789;50.840;4.386;2023-03-01T05:08:09;1.20;99.90
39677;DHT22;27789;50.840;4.386;2023-03-01T05:10:43;1.20;99.90
39677;DHT22;27789;50.840;4.386;2023-03-01T05:13:08;1.20;99.90
39677;DHT22;27789;50.840;4.386;2023-03-01T05:15:34;1.20;99.90
39677;DHT22;27789;50.840;4.386;2023-03-01T05:18:01;1.10;99.90
39677;DHT22;27789;50.840;4.386;2023-03-01T05:20:27;1.10;99.90
39677;DHT22;27789;50.840;4.386;2023-03-01T05:22:55;1.10;99.90
39677;DHT22;27789;50.840;4.386;2023-03-01T05:25:21;1.10;99.90
39677;DHT22;27789;50.840;4.386;2023-03-01T05:27:46;1.10;99.90
39677;DHT22;27789;50.840;4.386;2023-03-01T05:30:12;1.10;99.90
39677;DHT22;27789;50.840;4.386;2023-03-01T05:32:46;1.10;99.90
39677;DHT22;27789;50.840;4.386;2023-03-01T05:35:13;1.10;99.90
39677;DHT22;27789;50.840;4.386;2023-03-01T05:37:39;1.10;99.90
39677;DHT22;27789;50.840;4.386;2023-03-01T05:40:05;1.00;99.90
39677;DHT22;27789;50.840;4.386;2023-03-01T05:42:31;1.00;99.90
39677;DHT22;27789;50.840;4.386;2023-03-01T05:44:56;1.00;99.90
39677;DHT22;27789;50.840;4.386;2023-03-01T05:47:22;1.00;99.90
39677;DHT22;27789;50.840;4.386;2023-03-01T05:49:50;1.00;99.90
39677;DHT22;27789;50.840;4.386;2023-03-01T05:52:16;0.90;99.90
39677;DHT22;27789;50.840;4.386;2023-03-01T05:54:41;1.00;99.90
39677;DHT22;27789;50.840;4.386;2023-03-01T05:57:06;1.00;99.90
39677;DHT22;27789;50.840;4.386;2023-03-01T05:59:32;0.90;99.90
39677;DHT22;27789;50.840;4.386;2023-03-01T06:01:57;0.90;99.90
39677;DHT22;27789;50.840;4.386;2023-03-01T06:04:23;1.00;99.90
39677;DHT22;27789;50.840;4.386;2023-03-01T06:06:48;0.90;99.90
39677;DHT22;27789;50.840;4.386;2023-03-01T06:09:14;0.90;99.90
39677;DHT22;27789;50.840;4.386;2023-03-01T06:11:39;0.90;99.90
39677;DHT22;27789;50.840;4.386;2023-03-01T06:14:05;0.90;99.90
39677;DHT22;27789;50.840;4.386;2023-03-01T06:16:31;0.90;99.90
39677;DHT22;27789;50.840;4.386;2023-03-01T06:18:57;0.90;99.90
39677;DHT22;27789;50.840;4.386;2023-03-01T06:21:22;0.90;99.90
39677;DHT22;27789;50.840;4.386;2023-03-01T06:23:48;0.90;99.90
39677;DHT22;27789;50.840;4.386;2023-03-01T06:26:13;0.80;99.90
39677;DHT22;27789;50.840;4.386;2023-03-01T06:28:39;0.80;99.90
39677;DHT22;27789;50.840;4.386;2023-03-01T06:31:04;0.80;99.90
39677;DHT22;27789;50.840;4.386;2023-03-01T06:33:33;0.80;99.90
39677;DHT22;27789;50.840;4.386;2023-03-01T06:35:59;0.80;99.90
39677;DHT22;27789;50.840;4.386;2023-03-01T06:38:24;0.80;99.90
39677;DHT22;27789;50.840;4.386;2023-03-01T06:40:54;0.80;99.90
39677;DHT22;27789;50.840;4.386;2023-03-01T06:43:20;0.80;99.90
39677;DHT22;27789;50.840;4.386;2023-03-01T06:45:45;0.80;99.90
39677;DHT22;27789;50.840;4.386;2023-03-01T06:48:11;0.90;99.90
39677;DHT22;27789;50.840;4.386;2023-03-01T06:50:36;0.90;99.90
39677;DHT22;27789;50.840;4.386;2023-03-01T06:53:04;1.00;99.90
39677;DHT22;27789;50.840;4.386;2023-03-01T06:55:29;0.90;99.90
39677;DHT22;27789;50.840;4.386;2023-03-01T06:57:55;1.00;99.90
39677;DHT22;27789;50.840;4.386;2023-03-01T07:00:21;1.00;99.90
39677;DHT22;27789;50.840;4.386;2023-03-01T07:02:47;1.00;99.90
39677;DHT22;27789;50.840;4.386;2023-03-01T07:05:13;1.00;99.90
39677;DHT22;27789;50.840;4.386;2023-03-01T07:07:38;1.10;99.90
39677;DHT22;27789;50.840;4.386;2023-03-01T07:10:04;1.10;99.90
39677;DHT22;27789;50.840;4.386;2023-03-01T07:12:29;1.20;99.90
39677;DHT22;27789;50.840;4.386;2023-03-01T07:14:55;1.20;99.90
39677;DHT22;27789;50.840;4.386;2023-03-01T07:17:20;1.30;99.90
39677;DHT22;27789;50.840;4.386;2023-03-01T07:19:46;1.30;99.90
39677;DHT22;27789;50.840;4.386;2023-03-01T07:22:11;1.30;99.90
39677;DHT22;27789;50.840;4.386;2023-03-01T07:24:37;1.40;99.90
39677;DHT22;27789;50.840;4.386;2023-03-01T07:27:02;1.40;99.90
39677;DHT22;27789;50.840;4.386;2023-03-01T07:29:28;1.40;99.90
39677;DHT22;27789;50.840;4.386;2023-03-01T07:31:54;1.40;99.90
39677;DHT22;27789;50.840;4.386;2023-03-01T07:34:19;1.40;99.90
39677;DHT22;27789;50.840;4.386;2023-03-01T07:36:45;1.50;99.90
39677;DHT22;27789;50.840;4.386;2023-03-01T07:39:11;1.50;99.90
39677;DHT22;27789;50.840;4.386;2023-03-01T07:41:36;1.50;99.90
39677;DHT22;27789;50.840;4.386;2023-03-01T07:44:02;1.50;99.90
39677;DHT22;27789;50.840;4.386;2023-03-01T07:46:28;1.60;99.90
39677;DHT22;27789;50.840;4.386;2023-03-01T07:48:53;1.60;99.90
39677;DHT22;27789;50.840;4.386;2023-03-01T07:51:19;1.60;99.90
39677;DHT22;27789;50.840;4.386;2023-03-01T07:53:47;1.70;99.90
39677;DHT22;27789;50.840;4.386;2023-03-01T07:56:14;1.70;99.90
39677;DHT22;27789;50.840;4.386;2023-03-01T07:58:42;1.80;99.90
39677;DHT22;27789;50.840;4.386;2023-03-01T08:01:08;1.90;99.90
39677;DHT22;27789;50.840;4.386;2023-03-01T08:03:35;1.90;99.90
39677;DHT22;27789;50.840;4.386;2023-03-01T08:06:04;1.90;99.90
39677;DHT22;27789;50.840;4.386;2023-03-01T08:08:30;2.00;99.90
39677;DHT22;27789;50.840;4.386;2023-03-01T08:10:56;2.10;99.90
39677;DHT22;27789;50.840;4.386;2023-03-01T08:13:22;2.10;99.90
39677;DHT22;27789;50.840;4.386;2023-03-01T08:15:48;2.10;99.90
39677;DHT22;27789;50.840;4.386;2023-03-01T08:18:14;2.10;99.90
39677;DHT22;27789;50.840;4.386;2023-03-01T08:20:40;2.10;99.90
39677;DHT22;27789;50.840;4.386;2023-03-01T08:23:05;2.10;99.90
39677;DHT22;27789;50.840;4.386;2023-03-01T08:25:31;2.20;99.90
39677;DHT22;27789;50.840;4.386;2023-03-01T08:27:58;2.20;99.90
39677;DHT22;27789;50.840;4.386;2023-03-01T08:30:24;2.30;99.90
39677;DHT22;27789;50.840;4.386;2023-03-01T08:32:50;2.30;99.90
39677;DHT22;27789;50.840;4.386;2023-03-01T08:35:15;2.40;99.90
39677;DHT22;27789;50.840;4.386;2023-03-01T08:37:41;2.40;99.90
39677;DHT22;27789;50.840;4.386;2023-03-01T08:40:06;2.40;99.90
39677;DHT22;27789;50.840;4.386;2023-03-01T08:42:35;2.50;99.90
39677;DHT22;27789;50.840;4.386;2023-03-01T08:45:01;2.50;99.90
39677;DHT22;27789;50.840;4.386;2023-03-01T08:47:26;2.60;99.90
39677;DHT22;27789;50.840;4.386;2023-03-01T08:49:52;2.60;99.90
39677;DHT22;27789;50.840;4.386;2023-03-01T08:52:18;2.60;99.90
39677;DHT22;27789;50.840;4.386;2023-03-01T08:54:44;2.70;99.90
39677;DHT22;27789;50.840;4.386;2023-03-01T08:57:09;1.30;99.90
39677;DHT22;27789;50.840;4.386;2023-03-01T08:59:35;2.70;99.90
39677;DHT22;27789;50.840;4.386;2023-03-01T09:02:03;2.80;99.90
39677;DHT22;27789;50.840;4.386;2023-03-01T09:04:28;2.90;99.90
39677;DHT22;27789;50.840;4.386;2023-03-01T09:06:54;3.00;99.90
39677;DHT22;27789;50.840;4.386;2023-03-01T09:09:20;3.00;99.90
39677;DHT22;27789;50.840;4.386;2023-03-01T09:11:45;3.10;99.90
39677;DHT22;27789;50.840;4.386;2023-03-01T09:14:12;3.20;99.90
39677;DHT22;27789;50.840;4.386;2023-03-01T09:16:38;3.30;99.90
39677;DHT22;27789;50.840;4.386;2023-03-01T09:19:03;3.30;99.90
39677;DHT22;27789;50.840;4.386;2023-03-01T09:21:29;3.40;99.90
39677;DHT22;27789;50.840;4.386;2023-03-01T09:23:55;3.40;99.90
39677;DHT22;27789;50.840;4.386;2023-03-01T09:26:21;3.60;99.90
39677;DHT22;27789;50.840;4.386;2023-03-01T09:28:47;3.70;99.90
39677;DHT22;27789;50.840;4.386;2023-03-01T09:31:16;3.80;99.90
39677;DHT22;27789;50.840;4.386;2023-03-01T09:33:44;3.90;99.90
39677;DHT22;27789;50.840;4.386;2023-03-01T09:36:11;4.00;99.60
39677;DHT22;27789;50.840;4.386;2023-03-01T09:38:37;4.00;99.60
39677;DHT22;27789;50.840;4.386;2023-03-01T09:41:08;4.00;99.30
39677;DHT22;27789;50.840;4.386;2023-03-01T09:46:11;4.10;99.30
39677;DHT22;27789;50.840;4.386;2023-03-01T09:48:44;4.30;99.30
39677;DHT22;27789;50.840;4.386;2023-03-01T09:51:18;4.30;99.30
39677;DHT22;27789;50.840;4.386;2023-03-01T09:53:44;4.50;99.30
39677;DHT22;27789;50.840;4.386;2023-03-01T09:58:53;4.80;98.90
39677;DHT22;27789;50.840;4.386;2023-03-01T10:04:01;5.20;98.20
39677;DHT22;27789;50.840;4.386;2023-03-01T10:06:28;5.30;97.90
39677;DHT22;27789;50.840;4.386;2023-03-01T10:08:58;5.90;97.60
39677;DHT22;27789;50.840;4.386;2023-03-01T10:16:27;8.60;94.50
39677;DHT22;27789;50.840;4.386;2023-03-01T10:18:55;9.80;93.30
39677;DHT22;27789;50.840;4.386;2023-03-01T10:21:23;10.60;92.00
39677;DHT22;27789;50.840;4.386;2023-03-01T10:23:49;11.40;91.40
39677;DHT22;27789;50.840;4.386;2023-03-01T10:26:25;12.10;90.90
39677;DHT22;27789;50.840;4.386;2023-03-01T10:31:33;12.90;90.10
39677;DHT22;27789;50.840;4.386;2023-03-01T10:34:02;13.30;89.50
39677;DHT22;27789;50.840;4.386;2023-03-01T10:36:28;13.70;88.90
39677;DHT22;27789;50.840;4.386;2023-03-01T10:38:57;14.00;87.30
39677;DHT22;27789;50.840;4.386;2023-03-01T10:41:26;14.30;87.20
39677;DHT22;27789;50.840;4.386;2023-03-01T10:43:58;14.10;86.40
39677;DHT22;27789;50.840;4.386;2023-03-01T10:46:26;13.50;86.50
39677;DHT22;27789;50.840;4.386;2023-03-01T10:49:25;13.50;86.40
39677;DHT22;27789;50.840;4.386;2023-03-01T10:51:45;13.70;86.40
39677;DHT22;27789;50.840;4.386;2023-03-01T10:56:51;14.40;85.70
39677;DHT22;27789;50.840;4.386;2023-03-01T10:59:27;14.70;85.10
39677;DHT22;27789;50.840;4.386;2023-03-01T11:04:29;15.00;84.30
39677;DHT22;27789;50.840;4.386;2023-03-01T11:06:58;15.50;84.10
39677;DHT22;27789;50.840;4.386;2023-03-01T11:09:24;15.60;83.50
39677;DHT22;27789;50.840;4.386;2023-03-01T11:11:53;15.80;83.20
39677;DHT22;27789;50.840;4.386;2023-03-01T11:14:22;16.00;82.30
39677;DHT22;27789;50.840;4.386;2023-03-01T11:16:58;16.40;82.00
39677;DHT22;27789;50.840;4.386;2023-03-01T11:19:25;16.80;81.50
39677;DHT22;27789;50.840;4.386;2023-03-01T11:24:16;16.90;80.80
39677;DHT22;27789;50.840;4.386;2023-03-01T11:26:44;16.90;80.60
39677;DHT22;27789;50.840;4.386;2023-03-01T11:29:44;16.90;79.70
39677;DHT22;27789;50.840;4.386;2023-03-01T11:32:04;16.90;79.80
39677;DHT22;27789;50.840;4.386;2023-03-01T11:37:15;17.20;80.00
39677;DHT22;27789;50.840;4.386;2023-03-01T11:39:46;17.10;80.10
39677;DHT22;27789;50.840;4.386;2023-03-01T11:42:20;17.40;79.70
39677;DHT22;27789;50.840;4.386;2023-03-01T11:44:49;17.70;79.40
39677;DHT22;27789;50.840;4.386;2023-03-01T11:47:23;17.40;79.10
39677;DHT22;27789;50.840;4.386;2023-03-01T11:55:03;17.70;78.40
39677;DHT22;27789;50.840;4.386;2023-03-01T12:10:35;18.60;76.80
39677;DHT22;27789;50.840;4.386;2023-03-01T12:13:06;18.70;76.50
39677;DHT22;27789;50.840;4.386;2023-03-01T12:39:06;19.20;74.70
39677;DHT22;27789;50.840;4.386;2023-03-01T12:49:28;19.60;74.50
39677;DHT22;27789;50.840;4.386;2023-03-01T12:52:09;19.80;74.10
39677;DHT22;27789;50.840;4.386;2023-03-01T12:54:36;20.00;73.90
39677;DHT22;27789;50.840;4.386;2023-03-01T12:59:38;20.10;73.70
39677;DHT22;27789;50.840;4.386;2023-03-01T13:15:03;20.50;73.10
39677;DHT22;27789;50.840;4.386;2023-03-01T13:17:30;20.60;73.00
39677;DHT22;27789;50.840;4.386;2023-03-01T13:19:57;20.50;72.80
39677;DHT22;27789;50.840;4.386;2023-03-01T13:22:27;20.70;72.80
39677;DHT22;27789;50.840;4.386;2023-03-01T13:25:01;21.00;73.30
39677;DHT22;27789;50.840;4.386;2023-03-01T13:27:26;20.90;72.60
39677;DHT22;27789;50.840;4.386;2023-03-01T13:29:58;21.00;72.20
39677;DHT22;27789;50.840;4.386;2023-03-01T13:32:37;21.20;72.10
39677;DHT22;27789;50.840;4.386;2023-03-01T13:37:43;21.10;71.90
39677;DHT22;27789;50.840;4.386;2023-03-01T13:47:49;21.00;71.80
39677;DHT22;27789;50.840;4.386;2023-03-01T13:50:16;21.00;71.70
39677;DHT22;27789;50.840;4.386;2023-03-01T13:52:44;20.60;71.60
39677;DHT22;27789;50.840;4.386;2023-03-01T13:57:38;18.80;72.70
39677;DHT22;27789;50.840;4.386;2023-03-01T14:00:05;17.70;73.50
39677;DHT22;27789;50.840;4.386;2023-03-01T14:02:31;16.80;74.10
39677;DHT22;27789;50.840;4.386;2023-03-01T14:04:57;16.10;75.50
39677;DHT22;27789;50.840;4.386;2023-03-01T14:07:23;15.30;76.80
39677;DHT22;27789;50.840;4.386;2023-03-01T14:09:53;14.60;77.60
39677;DHT22;27789;50.840;4.386;2023-03-01T14:20:02;12.60;80.20
39677;DHT22;27789;50.840;4.386;2023-03-01T14:22:33;12.40;81.00
39677;DHT22;27789;50.840;4.386;2023-03-01T14:25:03;12.20;80.80
39677;DHT22;27789;50.840;4.386;2023-03-01T14:27:32;12.00;80.90
39677;DHT22;27789;50.840;4.386;2023-03-01T14:30:00;11.80;82.40
39677;DHT22;27789;50.840;4.386;2023-03-01T14:32:26;11.70;82.40
39677;DHT22;27789;50.840;4.386;2023-03-01T14:34:53;11.70;82.80
39677;DHT22;27789;50.840;4.386;2023-03-01T14:39:44;11.60;82.90
39677;DHT22;27789;50.840;4.386;2023-03-01T14:42:09;11.60;83.20
39677;DHT22;27789;50.840;4.386;2023-03-01T14:44:35;11.40;83.40
39677;DHT22;27789;50.840;4.386;2023-03-01T14:47:02;11.30;83.30
39677;DHT22;27789;50.840;4.386;2023-03-01T14:49:29;11.30;83.30
39677;DHT22;27789;50.840;4.386;2023-03-01T14:51:57;11.10;83.30
39677;DHT22;27789;50.840;4.386;2023-03-01T14:56:53;11.00;84.10
39677;DHT22;27789;50.840;4.386;2023-03-01T14:59:22;11.30;84.10
39677;DHT22;27789;50.840;4.386;2023-03-01T15:01:49;11.70;83.40
39677;DHT22;27789;50.840;4.386;2023-03-01T15:04:16;11.50;83.10
39677;DHT22;27789;50.840;4.386;2023-03-01T15:06:42;11.60;83.40
39677;DHT22;27789;50.840;4.386;2023-03-01T15:09:12;11.90;83.60
39677;DHT22;27789;50.840;4.386;2023-03-01T15:11:39;12.30;82.70
39677;DHT22;27789;50.840;4.386;2023-03-01T15:16:45;12.50;82.60
39677;DHT22;27789;50.840;4.386;2023-03-01T15:19:15;12.70;82.00
39677;DHT22;27789;50.840;4.386;2023-03-01T15:21:42;12.70;82.10
39677;DHT22;27789;50.840;4.386;2023-03-01T15:27:12;12.50;82.40
39677;DHT22;27789;50.840;4.386;2023-03-01T15:29:33;12.30;82.70
39677;DHT22;27789;50.840;4.386;2023-03-01T15:32:23;11.80;83.40
39677;DHT22;27789;50.840;4.386;2023-03-01T15:34:49;11.60;84.00
39677;DHT22;27789;50.840;4.386;2023-03-01T15:39:53;11.20;84.60
39677;DHT22;27789;50.840;4.386;2023-03-01T15:45:06;10.70;86.20
39677;DHT22;27789;50.840;4.386;2023-03-01T15:47:32;10.60;86.60
39677;DHT22;27789;50.840;4.386;2023-03-01T15:49:59;10.40;86.90
39677;DHT22;27789;50.840;4.386;2023-03-01T15:54:55;10.10;87.10
39677;DHT22;27789;50.840;4.386;2023-03-01T15:57:21;10.00;87.20
39677;DHT22;27789;50.840;4.386;2023-03-01T15:59:46;9.90;87.40
39677;DHT22;27789;50.840;4.386;2023-03-01T16:02:12;9.70;87.50
39677;DHT22;27789;50.840;4.386;2023-03-01T16:04:38;9.50;87.50
39677;DHT22;27789;50.840;4.386;2023-03-01T16:07:04;9.50;87.80
39677;DHT22;27789;50.840;4.386;2023-03-01T16:09:29;9.30;87.80
39677;DHT22;27789;50.840;4.386;2023-03-01T16:11:55;9.30;88.30
39677;DHT22;27789;50.840;4.386;2023-03-01T16:14:21;9.10;88.20
39677;DHT22;27789;50.840;4.386;2023-03-01T16:16:47;9.10;88.90
39677;DHT22;27789;50.840;4.386;2023-03-01T16:19:13;9.00;88.90
39677;DHT22;27789;50.840;4.386;2023-03-01T16:21:39;8.90;89.30
39677;DHT22;27789;50.840;4.386;2023-03-01T16:24:04;8.90;90.10
39677;DHT22;27789;50.840;4.386;2023-03-01T16:26:30;8.90;90.00
39677;DHT22;27789;50.840;4.386;2023-03-01T16:28:56;8.80;90.00
39677;DHT22;27789;50.840;4.386;2023-03-01T16:31:23;8.70;90.20
39677;DHT22;27789;50.840;4.386;2023-03-01T16:33:52;8.70;90.40
39677;DHT22;27789;50.840;4.386;2023-03-01T16:36:23;8.60;90.40
39677;DHT22;27789;50.840;4.386;2023-03-01T16:38:49;8.50;90.50
39677;DHT22;27789;50.840;4.386;2023-03-01T16:41:16;8.40;90.80
39677;DHT22;27789;50.840;4.386;2023-03-01T16:43:42;8.40;90.90
39677;DHT22;27789;50.840;4.386;2023-03-01T16:46:11;8.40;90.90
39677;DHT22;27789;50.840;4.386;2023-03-01T16:48:37;8.40;91.10
39677;DHT22;27789;50.840;4.386;2023-03-01T16:51:02;8.40;90.90
39677;DHT22;27789;50.840;4.386;2023-03-01T16:53:28;8.30;91.00
39677;DHT22;27789;50.840;4.386;2023-03-01T16:55:54;8.30;91.00
39677;DHT22;27789;50.840;4.386;2023-03-01T16:58:20;8.30;91.00
39677;DHT22;27789;50.840;4.386;2023-03-01T17:00:45;8.20;91.20
39677;DHT22;27789;50.840;4.386;2023-03-01T17:03:11;8.20;91.40
39677;DHT22;27789;50.840;4.386;2023-03-01T17:05:42;8.10;91.50
39677;DHT22;27789;50.840;4.386;2023-03-01T17:08:07;8.00;91.60
39677;DHT22;27789;50.840;4.386;2023-03-01T17:10:32;8.00;91.80
39677;DHT22;27789;50.840;4.386;2023-03-01T17:12:58;8.00;91.70
39677;DHT22;27789;50.840;4.386;2023-03-01T17:15:23;7.90;91.80
39677;DHT22;27789;50.840;4.386;2023-03-01T17:17:49;7.90;92.20
39677;DHT22;27789;50.840;4.386;2023-03-01T17:20:16;7.90;92.30
39677;DHT22;27789;50.840;4.386;2023-03-01T17:22:41;7.80;92.40
39677;DHT22;27789;50.840;4.386;2023-03-01T17:25:08;7.80;92.50
39677;DHT22;27789;50.840;4.386;2023-03-01T17:27:33;7.80;92.50
39677;DHT22;27789;50.840;4.386;2023-03-01T17:29:59;7.70;92.70
39677;DHT22;27789;50.840;4.386;2023-03-01T17:32:25;7.70;92.60
39677;DHT22;27789;50.840;4.386;2023-03-01T17:34:50;7.70;92.70
39677;DHT22;27789;50.840;4.386;2023-03-01T17:37:16;7.60;92.80
39677;DHT22;27789;50.840;4.386;2023-03-01T17:39:41;7.60;93.00
39677;DHT22;27789;50.840;4.386;2023-03-01T17:42:07;7.50;92.80
39677;DHT22;27789;50.840;4.386;2023-03-01T17:44:32;7.40;92.80
39677;DHT22;27789;50.840;4.386;2023-03-01T17:46:59;7.40;92.70
39677;DHT22;27789;50.840;4.386;2023-03-01T17:49:24;7.40;92.70
39677;DHT22;27789;50.840;4.386;2023-03-01T17:51:50;7.40;92.70
39677;DHT22;27789;50.840;4.386;2023-03-01T17:54:15;7.30;92.90
39677;DHT22;27789;50.840;4.386;2023-03-01T17:56:41;7.30;92.90
39677;DHT22;27789;50.840;4.386;2023-03-01T17:59:07;7.20;92.90
39677;DHT22;27789;50.840;4.386;2023-03-01T18:01:32;7.20;93.00
39677;DHT22;27789;50.840;4.386;2023-03-01T18:03:59;7.10;93.00